createdAt,value
2022-12-28T00:02:27.880Z,101624.59
2022-12-28T00:04:56.035Z,101623.23
2022-12-28T00:07:24.107Z,101615.32
2022-12-28T00:09:51.929Z,101614.57
2022-12-28T00:12:20.031Z,101611.40
2022-12-28T00:14:48.004Z,101611.14
2022-12-28T00:17:16.066Z,101602.92
2022-12-28T00:19:44.142Z,101597.66
2022-12-28T00:22:12.229Z,101597.04
2022-12-28T00:24:40.332Z,101594.93
2022-12-28T00:27:08.581Z,101595.30
2022-12-28T00:29:36.791Z,101589.76
2022-12-28T00:32:05.269Z,101591.16
2022-12-28T00:34:33.265Z,101584.77
2022-12-28T00:37:09.902Z,101584.45
2022-12-28T00:39:45.649Z,101577.55
2022-12-28T00:42:16.282Z,101577.84
2022-12-28T00:44:45.913Z,101574.26
2022-12-28T00:47:20.523Z,101571.55
2022-12-28T00:49:48.658Z,101568.56
2022-12-28T00:52:16.523Z,101569.80
2022-12-28T00:54:44.606Z,101567.62
2022-12-28T00:57:12.788Z,101569.11
2022-12-28T00:59:40.723Z,101568.40
2022-12-28T01:02:08.945Z,101571.52
2022-12-28T01:04:40.149Z,101571.48
2022-12-28T01:07:09.622Z,101567.25
2022-12-28T01:09:37.612Z,101573.84
2022-12-28T01:12:05.797Z,101573.01
2022-12-28T01:14:33.954Z,101567.73
2022-12-28T01:17:02.949Z,101558.39
2022-12-28T01:19:35.305Z,101554.03
2022-12-28T01:22:03.272Z,101547.48
2022-12-28T01:24:31.258Z,101538.98
2022-12-28T01:27:04.532Z,101536.12
2022-12-28T01:29:35.915Z,101538.38
2022-12-28T01:32:04.056Z,101535.19
2022-12-28T01:34:32.110Z,101530.30
2022-12-28T01:37:00.088Z,101530.31
2022-12-28T01:39:31.628Z,101520.30
2022-12-28T01:42:02.904Z,101521.50
2022-12-28T01:44:44.759Z,101522.34
2022-12-28T01:47:38.208Z,101522.78
2022-12-28T01:50:17.173Z,101525.80
2022-12-28T01:53:05.945Z,101529.59
2022-12-28T01:55:41.126Z,101529.36
2022-12-28T01:58:19.148Z,101523.27
2022-12-28T02:00:47.241Z,101524.39
2022-12-28T02:03:38.034Z,101516.74
2022-12-28T02:06:11.769Z,101511.55
2022-12-28T02:08:50.664Z,101503.44
2022-12-28T02:11:22.233Z,101495.74
2022-12-28T02:13:57.926Z,101500.29
2022-12-28T02:16:29.336Z,101497.80
2022-12-28T02:18:57.685Z,101494.38
2022-12-28T02:21:30.898Z,101491.69
2022-12-28T02:24:34.251Z,101490.60
2022-12-28T02:27:23.739Z,101489.25
2022-12-28T02:30:07.927Z,101488.13
2022-12-28T02:32:57.758Z,101483.79
2022-12-28T02:35:57.191Z,101474.35
2022-12-28T02:38:52.129Z,101472.29
2022-12-28T02:41:25.992Z,101470.66
2022-12-28T02:43:58.807Z,101467.56
2022-12-28T02:46:52.266Z,101466.04
2022-12-28T02:49:47.222Z,101465.75
2022-12-28T02:52:56.033Z,101462.66
2022-12-28T02:55:48.983Z,101454.20
2022-12-28T02:58:36.079Z,101448.42
2022-12-28T03:01:16.272Z,101445.52
2022-12-28T03:04:28.673Z,101443.34
2022-12-28T03:07:36.724Z,101441.82
2022-12-28T03:10:27.823Z,101439.99
2022-12-28T03:13:33.856Z,101444.38
2022-12-28T03:16:15.782Z,101441.10
2022-12-28T03:19:15.190Z,101439.84
2022-12-28T03:22:11.723Z,101440.84
2022-12-28T03:25:04.029Z,101435.36
2022-12-28T03:27:54.778Z,101430.77
2022-12-28T03:30:46.104Z,101422.55
2022-12-28T03:33:18.108Z,101419.70
2022-12-28T03:35:58.193Z,101415.39
2022-12-28T03:38:40.269Z,101415.88
2022-12-28T03:41:22.832Z,101410.73
2022-12-28T03:44:01.154Z,101402.72
2022-12-28T03:46:41.093Z,101396.56
2022-12-28T03:49:10.355Z,101395.89
2022-12-28T03:51:43.468Z,101390.04
2022-12-28T03:54:21.345Z,101389.73
2022-12-28T03:56:52.672Z,101384.73
2022-12-28T03:59:24.051Z,101381.73
2022-12-28T04:01:56.775Z,101372.90
2022-12-28T04:04:26.578Z,101371.61
2022-12-28T04:06:54.581Z,101370.73
2022-12-28T04:09:26.489Z,101367.02
2022-12-28T04:11:54.645Z,101363.07
2022-12-28T04:14:31.217Z,101355.55
2022-12-28T04:16:59.397Z,101349.09
2022-12-28T04:19:31.024Z,101346.95
2022-12-28T04:21:59.150Z,101341.23
2022-12-28T04:24:27.253Z,101334.27
2022-12-28T04:26:55.451Z,101326.13
2022-12-28T04:29:23.467Z,101318.19
2022-12-28T04:32:01.413Z,101309.63
2022-12-28T04:34:29.547Z,101305.73
2022-12-28T04:37:09.360Z,101299.79
2022-12-28T04:39:54.781Z,101292.19
2022-12-28T04:42:26.931Z,101288.73
2022-12-28T04:44:55.024Z,101290.78
2022-12-28T04:47:23.230Z,101289.36
2022-12-28T04:49:51.464Z,101288.17
2022-12-28T04:52:22.930Z,101286.95
2022-12-28T04:54:51.027Z,101284.55
2022-12-28T04:57:19.053Z,101285.36
2022-12-28T04:59:46.943Z,101280.94
2022-12-28T05:02:15.063Z,101278.86
2022-12-28T05:04:46.427Z,101275.16
2022-12-28T05:07:14.397Z,101275.96
2022-12-28T05:09:42.283Z,101262.66
2022-12-28T05:12:10.453Z,101259.45
2022-12-28T05:14:38.418Z,101255.70
2022-12-28T05:17:06.470Z,101259.02
2022-12-28T05:19:34.434Z,101257.84
2022-12-28T05:22:02.489Z,101257.73
2022-12-28T05:24:33.950Z,101248.98
2022-12-28T05:27:02.109Z,101249.07
2022-12-28T05:29:30.239Z,101249.86
2022-12-28T05:31:58.190Z,101246.04
2022-12-28T05:34:26.204Z,101242.92
2022-12-28T05:36:54.304Z,101236.34
2022-12-28T05:39:22.445Z,101229.61
2022-12-28T05:41:50.513Z,101226.77
2022-12-28T05:44:18.621Z,101225.98
2022-12-28T05:46:46.717Z,101224.46
2022-12-28T05:49:14.683Z,101219.13
2022-12-28T05:51:42.671Z,101213.98
2022-12-28T05:54:10.670Z,101213.05
2022-12-28T05:56:38.595Z,101209.76
2022-12-28T05:59:11.553Z,101208.17
2022-12-28T06:01:44.444Z,101211.71
2022-12-28T06:04:21.338Z,101209.62
2022-12-28T06:06:54.398Z,101210.01
2022-12-28T06:09:22.320Z,101207.44
2022-12-28T06:11:53.650Z,101211.52
2022-12-28T06:14:21.673Z,101204.70
2022-12-28T06:16:49.972Z,101199.27
2022-12-28T06:19:21.627Z,101194.16
2022-12-28T06:21:49.779Z,101190.84
2022-12-28T06:24:22.272Z,101185.66
2022-12-28T06:26:51.984Z,101187.56
2022-12-28T06:29:20.117Z,101189.66
2022-12-28T06:31:52.060Z,101186.54
2022-12-28T06:34:20.104Z,101186.73
2022-12-28T06:36:53.582Z,101190.67
2022-12-28T06:39:21.522Z,101184.70
2022-12-28T06:41:49.636Z,101183.39
2022-12-28T06:44:17.819Z,101181.28
2022-12-28T06:46:45.902Z,101178.52
2022-12-28T06:49:13.893Z,101169.78
2022-12-28T06:51:42.839Z,101171.61
2022-12-28T06:54:11.608Z,101169.30
2022-12-28T06:56:43.481Z,101166.85
2022-12-28T06:59:11.640Z,101160.09
2022-12-28T07:01:46.556Z,101158.56
2022-12-28T07:04:14.855Z,101154.73
2022-12-28T07:06:47.004Z,101146.52
2022-12-28T07:09:19.192Z,101139.82
2022-12-28T07:11:53.184Z,101139.04
2022-12-28T07:14:21.139Z,101139.84
2022-12-28T07:16:53.274Z,101141.61
2022-12-28T07:19:21.175Z,101146.25
2022-12-28T07:21:52.888Z,101149.88
2022-12-28T07:24:21.149Z,101143.73
2022-12-28T07:26:52.591Z,101142.08
2022-12-28T07:29:20.720Z,101135.75
2022-12-28T07:31:48.731Z,101129.96
2022-12-28T07:34:17.029Z,101128.20
2022-12-28T07:36:45.256Z,101121.38
2022-12-28T07:39:13.268Z,101122.20
2022-12-28T07:41:44.842Z,101119.02
2022-12-28T07:44:12.810Z,101118.55
2022-12-28T07:46:40.819Z,101117.69
2022-12-28T07:49:08.951Z,101115.39
2022-12-28T07:51:41.093Z,101119.03
2022-12-28T07:54:09.218Z,101114.75
2022-12-28T07:59:08.009Z,101106.14
2022-12-28T08:01:40.162Z,101106.23
2022-12-28T08:04:14.102Z,101108.69
2022-12-28T08:06:46.306Z,101106.45
2022-12-28T08:09:18.217Z,101103.84
2022-12-28T08:11:52.004Z,101098.39
2022-12-28T08:14:19.836Z,101096.94
2022-12-28T08:16:47.888Z,101095.94
2022-12-28T08:19:16.079Z,101092.83
2022-12-28T08:21:48.188Z,101089.80
2022-12-28T08:24:21.083Z,101089.58
2022-12-28T08:26:49.335Z,101083.86
2022-12-28T08:29:23.053Z,101082.18
2022-12-28T08:31:51.523Z,101075.29
2022-12-28T08:34:26.970Z,101075.39
2022-12-28T08:36:58.950Z,101069.86
2022-12-28T08:39:26.876Z,101071.27
2022-12-28T08:41:54.895Z,101068.05
2022-12-28T08:44:23.023Z,101063.27
2022-12-28T08:46:51.059Z,101063.11
2022-12-28T08:49:19.207Z,101061.83
2022-12-28T08:51:47.172Z,101059.27
2022-12-28T08:54:18.732Z,101056.24
2022-12-28T08:56:50.587Z,101052.96
2022-12-28T08:59:22.176Z,101053.53
2022-12-28T09:01:50.470Z,101048.75
2022-12-28T09:04:25.457Z,101042.70
2022-12-28T09:06:53.646Z,101042.44
2022-12-28T09:09:25.284Z,101042.39
2022-12-28T09:11:53.325Z,101041.90
2022-12-28T09:14:25.188Z,101039.45
2022-12-28T09:16:57.211Z,101036.70
2022-12-28T09:19:25.270Z,101029.30
2022-12-28T09:21:53.831Z,101023.23
2022-12-28T09:24:25.328Z,101022.46
2022-12-28T09:26:56.879Z,101025.37
2022-12-28T09:29:25.034Z,101022.20
2022-12-28T09:31:53.188Z,101017.50
2022-12-28T09:34:37.907Z,101018.08
2022-12-28T09:37:09.224Z,101013.90
2022-12-28T09:39:37.448Z,101008.21
2022-12-28T09:42:28.222Z,101004.72
2022-12-28T09:45:14.501Z,101003.85
2022-12-28T09:48:00.598Z,100999.95
2022-12-28T09:50:35.601Z,100989.13
2022-12-28T09:53:34.563Z,100984.79
2022-12-28T09:56:14.177Z,100976.66
2022-12-28T09:58:48.026Z,100974.69
2022-12-28T10:01:22.037Z,100970.60
2022-12-28T10:03:53.683Z,100968.39
2022-12-28T10:06:28.955Z,100957.66
2022-12-28T10:09:02.451Z,100960.33
2022-12-28T10:11:39.444Z,100949.16
2022-12-28T10:14:27.925Z,100944.79
2022-12-28T10:16:59.451Z,100943.64
2022-12-28T10:19:31.626Z,100938.75
2022-12-28T10:22:06.141Z,100933.64
2022-12-28T10:24:38.988Z,100934.14
2022-12-28T10:27:23.478Z,100927.30
2022-12-28T10:29:56.132Z,100923.05
2022-12-28T10:32:24.335Z,100914.48
2022-12-28T10:35:05.228Z,100909.23
2022-12-28T10:37:47.204Z,100907.15
2022-12-28T10:40:32.837Z,100904.60
2022-12-28T10:43:10.460Z,100899.92
2022-12-28T10:45:49.886Z,100898.74
2022-12-28T10:48:40.051Z,100889.17
2022-12-28T10:51:19.080Z,100884.69
2022-12-28T10:53:55.112Z,100874.52
2022-12-28T10:56:28.038Z,100868.70
2022-12-28T10:59:33.938Z,100861.05
2022-12-28T11:02:29.467Z,100852.84
2022-12-28T11:05:03.375Z,100844.20
2022-12-28T11:07:39.787Z,100846.48
2022-12-28T11:10:33.935Z,100835.11
2022-12-28T11:13:02.019Z,100829.03
2022-12-28T11:15:34.450Z,100822.63
2022-12-28T11:18:18.072Z,100814.89
2022-12-28T11:20:53.801Z,100820.59
2022-12-28T11:23:34.718Z,100821.22
2022-12-28T11:26:02.711Z,100808.67
2022-12-28T11:28:30.727Z,100802.54
2022-12-28T11:31:04.817Z,100802.09
2022-12-28T11:33:46.487Z,100794.71
2022-12-28T11:36:24.600Z,100790.34
2022-12-28T11:38:57.161Z,100792.08
2022-12-28T11:41:30.304Z,100786.83
2022-12-28T11:44:21.754Z,100785.52
2022-12-28T11:47:09.086Z,100792.38
2022-12-28T11:49:37.120Z,100787.91
2022-12-28T11:52:17.528Z,100785.64
2022-12-28T11:55:25.457Z,100786.86
2022-12-28T11:57:57.777Z,100786.09
2022-12-28T12:00:37.998Z,100776.96
2022-12-28T12:03:06.246Z,100771.89
2022-12-28T12:05:37.311Z,100770.98
2022-12-28T12:08:17.412Z,100761.76
2022-12-28T12:10:50.312Z,100757.27
2022-12-28T12:13:45.537Z,100755.58
2022-12-28T12:17:03.248Z,100751.68
2022-12-28T12:19:50.700Z,100747.14
2022-12-28T12:22:28.337Z,100745.17
2022-12-28T12:25:19.381Z,100739.90
2022-12-28T12:28:21.696Z,100734.14
2022-12-28T12:30:54.611Z,100728.52
2022-12-28T12:33:27.853Z,100725.23
2022-12-28T12:36:23.877Z,100726.67
2022-12-28T12:39:07.212Z,100729.67
2022-12-28T12:41:58.649Z,100724.84
2022-12-28T12:44:56.637Z,100725.50
2022-12-28T12:47:49.735Z,100714.64
2022-12-28T12:50:23.896Z,100714.58
2022-12-28T12:52:56.377Z,100718.27
2022-12-28T12:55:33.342Z,100707.84
2022-12-28T12:58:04.243Z,100706.40
2022-12-28T13:01:10.986Z,100707.10
2022-12-28T13:03:57.280Z,100700.80
2022-12-28T13:06:30.437Z,100698.55
2022-12-28T13:09:05.907Z,100694.23
2022-12-28T13:11:41.846Z,100693.70
2022-12-28T13:14:23.918Z,100689.59
2022-12-28T13:16:58.412Z,100685.44
2022-12-28T13:19:30.907Z,100684.55
2022-12-28T13:21:59.339Z,100687.95
2022-12-28T13:24:38.989Z,100688.08
2022-12-28T13:27:22.358Z,100683.98
2022-12-28T13:29:57.504Z,100682.05
2022-12-28T13:32:37.550Z,100683.88
2022-12-28T13:35:28.480Z,100682.85
2022-12-28T13:38:08.849Z,100682.41
2022-12-28T13:40:51.894Z,100681.30
2022-12-28T13:43:38.687Z,100683.05
2022-12-28T13:46:19.109Z,100683.34
2022-12-28T13:48:52.594Z,100687.38
2022-12-28T13:51:25.503Z,100681.63
2022-12-28T13:53:59.472Z,100679.05
2022-12-28T13:56:32.074Z,100675.17
2022-12-28T13:59:10.612Z,100672.20
2022-12-28T14:01:53.336Z,100668.10
2022-12-28T14:07:25.985Z,100659.36
2022-12-28T14:09:58.073Z,100661.63
2022-12-28T14:12:31.865Z,100661.37
2022-12-28T14:15:03.944Z,100659.40
2022-12-28T14:17:37.348Z,100650.89
2022-12-28T14:20:09.864Z,100649.52
2022-12-28T14:22:42.221Z,100643.95
2022-12-28T14:25:18.704Z,100647.09
2022-12-28T14:27:58.903Z,100651.76
2022-12-28T14:30:35.150Z,100652.75
2022-12-28T14:33:24.041Z,100651.34
2022-12-28T14:36:01.636Z,100651.98
2022-12-28T14:38:50.264Z,100651.02
2022-12-28T14:41:38.265Z,100655.59
2022-12-28T14:44:18.749Z,100654.48
2022-12-28T14:46:54.376Z,100654.04
2022-12-28T14:49:28.719Z,100654.35
2022-12-28T14:52:06.221Z,100653.95
2022-12-28T14:54:51.299Z,100657.44
2022-12-28T14:57:45.003Z,100654.58
2022-12-28T15:00:16.810Z,100651.66
2022-12-28T15:02:44.812Z,100653.56
2022-12-28T15:05:46.808Z,100648.08
2022-12-28T15:08:14.845Z,100645.41
2022-12-28T15:10:56.806Z,100649.84
2022-12-28T15:13:28.979Z,100649.56
2022-12-28T15:16:04.397Z,100655.77
2022-12-28T15:18:36.462Z,100659.66
2022-12-28T15:21:08.870Z,100666.81
2022-12-28T15:23:36.929Z,100669.92
2022-12-28T15:26:15.613Z,100670.54
2022-12-28T15:28:43.739Z,100670.15
2022-12-28T15:31:20.483Z,100664.55
2022-12-28T15:33:51.665Z,100666.90
2022-12-28T15:36:25.004Z,100661.73
2022-12-28T15:38:59.469Z,100658.25
2022-12-28T15:41:46.474Z,100657.19
2022-12-28T15:44:20.049Z,100660.66
2022-12-28T15:46:52.309Z,100659.73
2022-12-28T15:49:20.422Z,100658.77
2022-12-28T15:51:48.456Z,100662.46
2022-12-28T15:54:16.516Z,100660.64
2022-12-28T15:56:55.982Z,100650.36
2022-12-28T15:59:24.115Z,100653.36
2022-12-28T16:01:52.280Z,100652.27
2022-12-28T16:04:22.449Z,100656.00
2022-12-28T16:06:50.369Z,100658.11
2022-12-28T16:09:18.399Z,100658.20
2022-12-28T16:11:50.162Z,100658.90
2022-12-28T16:14:28.317Z,100659.35
2022-12-28T16:16:56.499Z,100656.20
2022-12-28T16:19:24.567Z,100657.58
2022-12-28T16:21:52.689Z,100658.24
2022-12-28T16:24:25.829Z,100663.22
2022-12-28T16:26:53.727Z,100662.06
2022-12-28T16:29:21.866Z,100658.98
2022-12-28T16:31:56.742Z,100656.60
2022-12-28T16:34:29.378Z,100652.99
2022-12-28T16:37:02.136Z,100651.84
2022-12-28T16:39:30.356Z,100658.97
2022-12-28T16:42:03.176Z,100660.03
2022-12-28T16:44:31.240Z,100658.34
2022-12-28T16:47:02.275Z,100658.77
2022-12-28T16:49:30.472Z,100662.92
2022-12-28T16:52:03.248Z,100660.78
2022-12-28T16:54:31.379Z,100663.56
2022-12-28T16:56:59.468Z,100668.29
2022-12-28T16:59:29.324Z,100662.09
2022-12-28T17:02:03.179Z,100661.52
2022-12-28T17:04:31.343Z,100655.35
2022-12-28T17:07:02.672Z,100657.39
2022-12-28T17:09:31.050Z,100651.45
2022-12-28T17:11:58.992Z,100650.42
2022-12-28T17:14:37.327Z,100644.41
2022-12-28T17:17:11.367Z,100646.54
2022-12-28T17:19:39.438Z,100645.58
2022-12-28T17:22:07.520Z,100643.79
2022-12-28T17:24:35.395Z,100651.84
2022-12-28T17:27:11.802Z,100646.38
2022-12-28T17:29:48.090Z,100647.91
2022-12-28T17:32:20.844Z,100649.88
2022-12-28T17:34:48.924Z,100650.80
2022-12-28T17:37:20.310Z,100645.50
2022-12-28T17:39:48.320Z,100648.42
2022-12-28T17:42:16.499Z,100647.29
2022-12-28T17:44:50.444Z,100649.22
2022-12-28T17:47:18.548Z,100653.55
2022-12-28T17:49:46.549Z,100649.44
2022-12-28T17:52:24.082Z,100651.56
2022-12-28T17:54:52.184Z,100651.10
2022-12-28T17:57:20.246Z,100650.33
2022-12-28T17:59:48.294Z,100650.10
2022-12-28T18:02:16.536Z,100647.95
2022-12-28T18:04:49.112Z,100650.94
2022-12-28T18:07:17.186Z,100649.62
2022-12-28T18:09:45.203Z,100648.83
2022-12-28T18:12:13.169Z,100651.52
2022-12-28T18:14:41.194Z,100645.68
2022-12-28T18:17:09.290Z,100640.27
2022-12-28T18:19:37.470Z,100641.83
2022-12-28T18:22:05.545Z,100638.74
2022-12-28T18:24:33.859Z,100639.24
2022-12-28T18:27:06.889Z,100642.04
2022-12-28T18:29:35.077Z,100639.21
2022-12-28T18:32:03.171Z,100636.80
2022-12-28T18:34:31.077Z,100636.79
2022-12-28T18:36:59.122Z,100635.77
2022-12-28T18:39:27.114Z,100634.55
2022-12-28T18:41:55.288Z,100632.48
2022-12-28T18:44:28.764Z,100629.46
2022-12-28T18:46:56.767Z,100626.71
2022-12-28T18:49:24.795Z,100622.83
2022-12-28T18:51:58.275Z,100625.52
2022-12-28T18:54:26.231Z,100624.71
2022-12-28T18:56:54.399Z,100620.27
2022-12-28T18:59:24.173Z,100616.73
2022-12-28T19:02:09.983Z,100614.90
2022-12-28T19:04:40.243Z,100612.73
2022-12-28T19:07:08.426Z,100615.28
2022-12-28T19:09:36.343Z,100617.27
2022-12-28T19:12:04.671Z,100615.92
2022-12-28T19:14:32.549Z,100617.33
2022-12-28T19:17:00.548Z,100616.36
2022-12-28T19:19:28.605Z,100616.49
2022-12-28T19:22:01.228Z,100618.00
2022-12-28T19:24:29.371Z,100616.78
2022-12-28T19:26:57.523Z,100615.40
2022-12-28T19:29:30.291Z,100609.38
2022-12-28T19:31:58.234Z,100609.05
2022-12-28T19:34:30.812Z,100612.27
2022-12-28T19:36:58.795Z,100606.01
2022-12-28T19:39:26.703Z,100601.70
2022-12-28T19:41:54.765Z,100600.55
2022-12-28T19:44:22.698Z,100607.73
2022-12-28T19:46:55.856Z,100604.04
2022-12-28T19:49:24.124Z,100602.35
2022-12-28T19:51:52.205Z,100594.50
2022-12-28T19:54:20.186Z,100596.96
2022-12-28T19:56:48.206Z,100590.30
2022-12-28T19:59:16.356Z,100589.71
2022-12-28T20:01:44.669Z,100589.60
2022-12-28T20:04:15.112Z,100584.45
2022-12-28T20:06:48.160Z,100583.14
2022-12-28T20:09:16.297Z,100578.34
2022-12-28T20:11:46.753Z,100578.77
2022-12-28T20:14:24.931Z,100575.02
2022-12-28T20:16:57.751Z,100573.26
2022-12-28T20:19:25.653Z,100570.02
2022-12-28T20:21:53.586Z,100570.05
2022-12-28T20:24:26.299Z,100565.20
2022-12-28T20:27:01.734Z,100559.36
2022-12-28T20:29:30.135Z,100557.30
2022-12-28T20:31:59.384Z,100551.67
2022-12-28T20:34:27.575Z,100548.36
2022-12-28T20:36:55.880Z,100548.67
2022-12-28T20:39:23.919Z,100551.20
2022-12-28T20:42:10.542Z,100552.02
2022-12-28T20:44:38.735Z,100551.33
2022-12-28T20:47:06.884Z,100548.29
2022-12-28T20:49:39.477Z,100543.31
2022-12-28T20:52:07.456Z,100540.82
2022-12-28T20:54:39.496Z,100536.67
2022-12-28T20:57:07.522Z,100533.40
2022-12-28T20:59:35.482Z,100530.61
2022-12-28T21:02:03.730Z,100531.17
2022-12-28T21:04:32.073Z,100529.58
2022-12-28T21:07:00.203Z,100523.08
2022-12-28T21:09:28.134Z,100521.06
2022-12-28T21:11:56.049Z,100521.58
2022-12-28T21:14:24.095Z,100521.76
2022-12-28T21:16:52.157Z,100515.74
2022-12-28T21:19:20.263Z,100513.28
2022-12-28T21:21:51.353Z,100513.73
2022-12-28T21:24:19.471Z,100518.13
2022-12-28T21:26:47.480Z,100516.02
2022-12-28T21:29:20.466Z,100513.40
2022-12-28T21:31:52.205Z,100513.62
2022-12-28T21:34:20.642Z,100510.33
2022-12-28T21:36:48.806Z,100507.80
2022-12-28T21:39:16.926Z,100503.94
2022-12-28T21:41:50.941Z,100498.02
2022-12-28T21:44:24.439Z,100493.80
2022-12-28T21:46:53.638Z,100489.86
2022-12-28T21:49:22.050Z,100485.48
2022-12-28T21:51:51.701Z,100480.65
2022-12-28T21:54:21.437Z,100479.30
2022-12-28T21:56:52.970Z,100474.63
2022-12-28T21:59:23.523Z,100477.42
2022-12-28T22:02:11.738Z,100473.05
2022-12-28T22:05:12.081Z,100474.18
2022-12-28T22:07:40.099Z,100472.17
2022-12-28T22:10:26.901Z,100470.41
2022-12-28T22:12:54.872Z,100464.73
2022-12-28T22:15:44.468Z,100462.75
2022-12-28T22:18:37.128Z,100467.83
2022-12-28T22:21:06.846Z,100469.23
2022-12-28T22:23:35.263Z,100470.86
2022-12-28T22:26:03.761Z,100466.77
2022-12-28T22:28:31.767Z,100462.84
2022-12-28T22:31:05.070Z,100462.98
2022-12-28T22:33:33.431Z,100462.52
2022-12-28T22:36:16.874Z,100466.45
2022-12-28T22:38:45.886Z,100463.70
2022-12-28T22:41:13.859Z,100461.33
2022-12-28T22:43:41.865Z,100463.77
2022-12-28T22:46:12.046Z,100458.20
2022-12-28T22:48:40.360Z,100458.91
2022-12-28T22:51:11.501Z,100459.47
2022-12-28T22:53:40.369Z,100458.01
2022-12-28T22:56:12.354Z,100450.00
2022-12-28T22:58:40.353Z,100447.58
2022-12-28T23:01:14.707Z,100440.37
2022-12-28T23:03:44.964Z,100430.83
2022-12-28T23:06:14.915Z,100425.98
2022-12-28T23:08:43.250Z,100419.15
2022-12-28T23:11:33.158Z,100412.67
2022-12-28T23:14:22.406Z,100413.96
2022-12-28T23:16:50.703Z,100416.75
2022-12-28T23:19:37.653Z,100415.70
2022-12-28T23:22:26.684Z,100401.30
2022-12-28T23:25:13.689Z,100390.81
2022-12-28T23:27:44.042Z,100383.73
2022-12-28T23:30:18.255Z,100380.12
2022-12-28T23:32:47.742Z,100379.02
2022-12-28T23:35:17.809Z,100378.76
2022-12-28T23:37:46.758Z,100365.95
2022-12-28T23:40:16.844Z,100357.47
2022-12-28T23:42:45.259Z,100359.17
2022-12-28T23:45:16.851Z,100371.43
2022-12-28T23:47:45.898Z,100370.53
2022-12-28T23:50:15.628Z,100372.74
2022-12-28T23:52:43.789Z,100377.39
2022-12-28T23:55:12.162Z,100368.09
2022-12-28T23:57:40.334Z,100356.54
